Time;durP1;ratioP1;P1;durP2;ratioP2;P2;SDS_P1;SDS_P2;PMS_P1;PMS_P2;Temp;Humidity;BMP_temperature;BMP_pressure;BME280_temperature;BME280_humidity;BME280_pressure;Samples;Min_cycle;Max_cycle;Signal;HPM_P1;HPM_P2
2021/07/15 04:00:27;;;;;;;2.73;0.60;;;16.70;99.90;;;;;;5947867;23;20410;-60
2021/07/15 04:03:01;;;;;;;0.50;0.50;;;16.70;99.90;;;;;;4976312;28;20473;-61
2021/07/15 04:05:30;;;;;;;0.83;0.50;;;16.70;99.90;;;;;;4975916;28;20489;-61
2021/07/15 04:08:00;;;;;;;0.80;0.80;;;16.60;99.90;;;;;;4974925;28;20458;-59
2021/07/15 04:10:28;;;;;;;0.53;0.53;;;16.70;99.90;;;;;;4974824;28;20855;-61
2021/07/15 04:12:57;;;;;;;0.87;0.87;;;16.70;99.90;;;;;;4974691;28;20463;-61
2021/07/15 04:15:35;;;;;;;0.70;0.70;;;16.70;99.90;;;;;;4974756;28;20459;-61
2021/07/15 04:18:04;;;;;;;2.43;0.73;;;16.70;99.90;;;;;;4975266;28;20525;-62
2021/07/15 04:20:31;;;;;;;1.90;0.87;;;16.70;99.90;;;;;;4974871;28;20482;-62
2021/07/15 04:23:01;;;;;;;1.37;0.70;;;16.70;99.90;;;;;;4974735;28;20909;-61
2021/07/15 04:25:28;;;;;;;0.60;0.60;;;16.70;99.90;;;;;;4978099;28;20487;-61
2021/07/15 04:27:59;;;;;;;0.70;0.70;;;16.70;99.90;;;;;;4978023;28;20459;-61
2021/07/15 04:30:28;;;;;;;1.13;0.67;;;16.60;99.90;;;;;;4977918;28;20470;-61
2021/07/15 04:32:56;;;;;;;0.70;0.70;;;16.60;99.90;;;;;;4977878;28;20454;-61
2021/07/15 04:35:25;;;;;;;3.93;0.67;;;16.60;99.90;;;;;;4977702;28;20509;-62
2021/07/15 04:37:53;;;;;;;0.80;0.80;;;16.60;99.90;;;;;;4979614;28;20868;-63
2021/07/15 04:40:22;;;;;;;0.40;0.40;;;16.60;99.90;;;;;;4978551;28;20513;-62
2021/07/15 04:42:53;;;;;;;2.77;0.63;;;16.70;99.90;;;;;;4978423;28;20981;-61
2021/07/15 04:45:24;;;;;;;0.77;0.77;;;16.70;99.90;;;;;;4978384;28;20474;-61
2021/07/15 04:47:54;;;;;;;0.40;0.40;;;16.60;99.90;;;;;;4977778;28;20449;-62
2021/07/15 04:50:25;;;;;;;1.17;0.43;;;16.70;99.90;;;;;;4978090;28;20458;-61
2021/07/15 04:52:56;;;;;;;0.40;0.40;;;16.50;99.90;;;;;;4978243;28;20438;-62
2021/07/15 04:55:24;;;;;;;0.47;0.47;;;16.60;99.90;;;;;;4978179;28;20852;-61
2021/07/15 04:57:52;;;;;;;0.50;0.50;;;16.70;99.90;;;;;;4977598;28;20513;-60
2021/07/15 05:00:20;;;;;;;0.63;0.63;;;16.80;99.90;;;;;;4977404;28;20459;-61
2021/07/15 05:02:51;;;;;;;0.57;0.57;;;16.90;99.90;;;;;;4977273;28;20443;-61
2021/07/15 05:05:19;;;;;;;0.60;0.60;;;17.00;99.90;;;;;;4977891;28;20497;-61
2021/07/15 05:07:45;;;;;;;0.60;0.60;;;17.00;99.90;;;;;;4977233;28;20870;-61
2021/07/15 05:10:13;;;;;;;0.40;0.40;;;17.00;99.90;;;;;;4977183;28;20462;-60
2021/07/15 05:12:40;;;;;;;0.90;0.60;;;17.00;99.90;;;;;;4977626;28;20454;-60
2021/07/15 05:15:09;;;;;;;0.70;0.70;;;17.10;99.90;;;;;;4977102;28;20525;-60
2021/07/15 05:17:36;;;;;;;1.30;0.63;;;17.20;99.90;;;;;;4976757;28;20458;-61
2021/07/15 05:20:04;;;;;;;0.70;0.60;;;17.40;99.90;;;;;;4977034;28;20475;-60
2021/07/15 05:22:32;;;;;;;0.77;0.77;;;17.50;99.90;;;;;;4978240;28;20478;-60
2021/07/15 05:24:59;;;;;;;1.90;0.80;;;17.50;99.90;;;;;;4977286;28;21008;-61
2021/07/15 05:27:26;;;;;;;1.30;0.37;;;17.60;99.90;;;;;;4976940;28;20459;-61
2021/07/15 05:29:53;;;;;;;0.40;0.40;;;17.60;99.90;;;;;;4976529;28;20450;-60
2021/07/15 05:32:20;;;;;;;0.70;0.70;;;17.70;99.90;;;;;;4976106;28;20474;-61
2021/07/15 05:34:47;;;;;;;0.70;0.70;;;17.60;99.90;;;;;;4976655;28;20451;-61
2021/07/15 05:37:13;;;;;;;1.03;0.77;;;17.60;99.90;;;;;;4977117;28;20946;-61
2021/07/15 05:39:43;;;;;;;1.80;0.57;;;17.70;99.90;;;;;;4977664;28;20459;-61
2021/07/15 05:42:10;;;;;;;2.07;0.83;;;17.80;99.90;;;;;;4977152;28;20792;-61
2021/07/15 05:44:37;;;;;;;0.77;0.60;;;17.80;99.90;;;;;;4976747;28;20475;-61
2021/07/15 05:47:04;;;;;;;0.90;0.50;;;17.80;99.90;;;;;;4976651;28;20461;-61
2021/07/15 05:49:31;;;;;;;2.57;0.73;;;17.90;99.90;;;;;;4976717;28;20455;-60
2021/07/15 05:51:57;;;;;;;1.90;0.67;;;17.80;99.90;;;;;;4976593;28;20479;-61
2021/07/15 05:54:25;;;;;;;0.77;0.60;;;17.90;99.90;;;;;;4977427;28;20502;-61
2021/07/15 05:56:54;;;;;;;0.83;0.60;;;17.90;99.90;;;;;;4999655;28;20519;-61
2021/07/15 05:59:20;;;;;;;0.80;0.80;;;17.90;99.90;;;;;;4980194;28;20447;-61
2021/07/15 06:01:47;;;;;;;1.40;0.70;;;17.90;99.90;;;;;;4976021;28;20486;-61
2021/07/15 06:04:14;;;;;;;1.63;0.60;;;18.00;99.90;;;;;;4976187;28;20538;-61
2021/07/15 06:06:40;;;;;;;1.00;0.60;;;18.00;99.90;;;;;;4976249;28;20458;-61
2021/07/15 06:09:07;;;;;;;1.73;0.70;;;18.10;99.90;;;;;;4976055;28;20867;-61
2021/07/15 06:11:34;;;;;;;2.10;0.60;;;18.10;99.90;;;;;;4982822;28;20854;-61
2021/07/15 06:14:02;;;;;;;1.33;0.70;;;18.20;99.90;;;;;;4975905;28;20439;-61
2021/07/15 06:16:28;;;;;;;0.83;0.80;;;18.20;99.90;;;;;;4975885;28;20470;-61
2021/07/15 06:18:55;;;;;;;1.33;0.60;;;18.30;99.90;;;;;;4975954;28;20517;-61
2021/07/15 06:21:22;;;;;;;0.47;0.47;;;18.50;99.90;;;;;;4977152;28;20475;-61
2021/07/15 06:23:49;;;;;;;0.70;0.60;;;18.50;99.90;;;;;;4975389;28;20989;-61
2021/07/15 06:26:15;;;;;;;0.47;0.47;;;18.50;99.90;;;;;;4975849;28;20454;-61
2021/07/15 06:28:42;;;;;;;0.60;0.60;;;18.60;99.90;;;;;;4975691;28;20470;-61
2021/07/15 06:31:10;;;;;;;0.60;0.60;;;18.80;99.90;;;;;;4975344;28;20481;-61
2021/07/15 06:33:37;;;;;;;0.90;0.90;;;19.10;99.90;;;;;;4975433;28;20822;-61
2021/07/15 06:36:06;;;;;;;1.70;0.70;;;19.50;99.90;;;;;;4975877;28;20549;-61
2021/07/15 06:38:34;;;;;;;3.00;0.60;;;19.70;99.90;;;;;;4975306;28;20961;-61
2021/07/15 06:41:03;;;;;;;3.00;0.60;;;19.80;99.90;;;;;;4975647;28;20553;-61
2021/07/15 06:43:29;;;;;;;0.87;0.50;;;19.80;99.90;;;;;;4975568;28;21012;-61
2021/07/15 06:45:56;;;;;;;0.50;0.50;;;19.70;99.90;;;;;;4975522;28;20462;-60
2021/07/15 06:48:24;;;;;;;0.90;0.63;;;19.90;99.90;;;;;;4975247;28;20483;-60
2021/07/15 06:50:51;;;;;;;0.60;0.57;;;20.00;99.90;;;;;;4975171;28;21093;-61
2021/07/15 06:53:17;;;;;;;2.93;0.63;;;20.20;99.90;;;;;;4975474;28;20466;-61
2021/07/15 06:55:44;;;;;;;0.97;0.53;;;20.30;99.90;;;;;;4975137;28;20960;-61
2021/07/15 06:58:11;;;;;;;0.50;0.50;;;20.40;99.90;;;;;;4975263;28;20455;-61
2021/07/15 07:00:38;;;;;;;0.80;0.63;;;20.30;99.90;;;;;;4975046;28;20490;-61
2021/07/15 07:03:05;;;;;;;0.50;0.50;;;20.40;99.90;;;;;;4975123;28;20435;-63
2021/07/15 07:05:33;;;;;;;2.13;0.63;;;20.50;99.90;;;;;;4976002;28;20999;-62
2021/07/15 07:08:00;;;;;;;2.20;0.50;;;20.20;99.90;;;;;;4975642;28;20463;-62
2021/07/15 07:10:27;;;;;;;3.13;0.60;;;20.00;99.90;;;;;;4975430;28;20455;-62
2021/07/15 07:12:53;;;;;;;1.20;0.60;;;19.90;99.90;;;;;;4975445;28;20462;-62
2021/07/15 07:15:20;;;;;;;0.70;0.53;;;19.80;99.90;;;;;;4975250;28;20458;-62
2021/07/15 07:17:48;;;;;;;1.77;0.70;;;19.70;99.90;;;;;;4975159;28;20823;-61
2021/07/15 07:20:16;;;;;;;1.43;0.67;;;19.80;99.90;;;;;;4975022;28;20446;-61
2021/07/15 07:22:45;;;;;;;1.13;0.90;;;19.80;99.90;;;;;;4975019;28;20459;-61
2021/07/15 07:25:13;;;;;;;1.00;0.50;;;19.80;99.90;;;;;;4975403;28;20482;-61
2021/07/15 07:27:41;;;;;;;1.17;0.47;;;19.80;99.90;;;;;;4974856;28;20934;-61
2021/07/15 07:30:10;;;;;;;1.47;0.80;;;19.70;99.90;;;;;;4975389;28;20454;-61
2021/07/15 07:32:37;;;;;;;0.50;0.50;;;19.60;99.90;;;;;;4974906;28;20942;-61
2021/07/15 07:35:07;;;;;;;0.73;0.50;;;19.60;99.90;;;;;;4975145;28;20447;-61
2021/07/15 07:37:34;;;;;;;0.73;0.73;;;19.50;99.90;;;;;;4975179;28;20461;-61
2021/07/15 07:40:04;;;;;;;0.70;0.70;;;19.50;99.90;;;;;;4974818;28;20454;-62
2021/07/15 07:42:31;;;;;;;1.20;1.10;;;19.60;99.90;;;;;;4974733;28;20982;-62
2021/07/15 07:44:57;;;;;;;0.80;0.80;;;19.60;99.90;;;;;;4975022;28;20479;-61
2021/07/15 07:47:24;;;;;;;3.13;0.40;;;19.60;99.90;;;;;;4977355;28;20458;-61
2021/07/15 07:49:51;;;;;;;1.17;0.87;;;19.70;99.90;;;;;;4975141;28;20486;-61
2021/07/15 07:52:17;;;;;;;0.80;0.70;;;19.90;99.90;;;;;;4975070;28;20553;-62
2021/07/15 07:54:44;;;;;;;1.40;0.70;;;20.10;99.90;;;;;;4974918;28;20776;-61
2021/07/15 07:57:12;;;;;;;0.70;0.50;;;20.10;99.90;;;;;;4975014;28;20455;-62
2021/07/15 07:59:39;;;;;;;1.37;0.50;;;20.20;99.90;;;;;;4984460;28;20450;-62
2021/07/15 08:02:06;;;;;;;3.90;0.80;;;20.40;99.90;;;;;;4980770;28;20483;-61
2021/07/15 08:04:33;;;;;;;1.07;0.97;;;20.50;99.90;;;;;;4985225;28;20458;-61
2021/07/15 08:07:02;;;;;;;1.40;0.53;;;20.60;99.90;;;;;;4996841;28;20909;-61
2021/07/15 08:09:31;;;;;;;3.13;0.73;;;20.60;99.90;;;;;;4979025;28;20458;-61
2021/07/15 08:11:57;;;;;;;1.40;1.03;;;20.40;99.90;;;;;;4978956;28;20525;-60
2021/07/15 08:14:26;;;;;;;2.30;1.00;;;20.40;99.90;;;;;;4993617;28;20438;-62
2021/07/15 08:16:53;;;;;;;1.50;0.73;;;20.10;99.90;;;;;;4997603;28;20442;-61
2021/07/15 08:19:21;;;;;;;2.87;0.80;;;20.20;99.90;;;;;;5000656;28;20434;-61
2021/07/15 08:21:48;;;;;;;1.03;0.80;;;19.90;99.90;;;;;;4988964;28;20481;-61
2021/07/15 08:24:14;;;;;;;3.73;0.93;;;19.70;99.90;;;;;;4978565;28;20480;-60
2021/07/15 08:26:41;;;;;;;0.77;0.60;;;19.70;99.90;;;;;;4978400;28;20938;-61
2021/07/15 08:29:08;;;;;;;3.80;0.93;;;19.60;99.90;;;;;;4978473;28;20466;-61
2021/07/15 08:31:36;;;;;;;2.83;0.70;;;19.60;99.90;;;;;;4978038;28;20475;-62
2021/07/15 08:34:02;;;;;;;1.40;0.60;;;19.50;99.90;;;;;;4978605;28;20455;-61
2021/07/15 08:36:31;;;;;;;0.67;0.67;;;19.50;99.90;;;;;;4978494;28;20455;-61
2021/07/15 08:38:58;;;;;;;1.03;0.77;;;19.60;99.90;;;;;;4978062;28;20466;-61
2021/07/15 08:41:24;;;;;;;1.50;0.60;;;19.70;99.90;;;;;;4977545;28;20993;-61
2021/07/15 08:43:53;;;;;;;1.47;0.63;;;19.70;99.90;;;;;;4977864;28;20466;-61
2021/07/15 08:46:21;;;;;;;2.23;1.00;;;19.70;99.90;;;;;;4977981;28;20467;-62
2021/07/15 08:48:49;;;;;;;4.67;0.90;;;19.90;99.90;;;;;;4978424;28;20463;-61
2021/07/15 08:51:16;;;;;;;1.23;0.73;;;19.90;99.90;;;;;;4977531;28;20505;-61
2021/07/15 08:53:44;;;;;;;4.43;0.60;;;19.80;99.90;;;;;;4978358;28;20462;-61
2021/07/15 08:58:58;;;;;;;2.03;0.60;;;19.80;99.90;;;;;;4990486;28;20431;-61
2021/07/15 09:01:24;;;;;;;2.20;0.80;;;19.80;99.90;;;;;;4987393;28;20483;-61
2021/07/15 09:03:53;;;;;;;7.93;0.80;;;19.90;99.90;;;;;;4978271;28;20454;-61
2021/07/15 09:06:20;;;;;;;4.23;0.80;;;19.90;99.90;;;;;;4989228;28;20462;-61
2021/07/15 09:08:49;;;;;;;1.27;0.50;;;20.00;99.90;;;;;;4988219;28;20462;-61
2021/07/15 09:11:16;;;;;;;1.50;0.70;;;20.20;99.90;;;;;;4984359;28;20481;-61
2021/07/15 09:13:43;;;;;;;0.53;0.53;;;20.30;99.90;;;;;;4981691;28;20451;-61
2021/07/15 09:16:14;;;;;;;1.43;0.40;;;20.50;99.90;;;;;;4981130;28;20454;-61
2021/07/15 09:18:59;;;;;;;2.47;0.60;;;20.70;99.90;;;;;;4978651;28;20489;-61
2021/07/15 09:21:28;;;;;;;4.70;1.33;;;20.70;99.90;;;;;;4976933;28;20482;-61
2021/07/15 09:23:54;;;;;;;1.10;0.80;;;20.80;99.90;;;;;;4977225;28;20454;-62
2021/07/15 09:26:22;;;;;;;0.80;0.57;;;21.00;99.90;;;;;;4976994;28;20938;-61
2021/07/15 09:28:48;;;;;;;0.67;0.67;;;21.40;99.90;;;;;;4977131;28;20454;-61
2021/07/15 09:31:21;;;;;;;1.07;0.97;;;21.50;99.90;;;;;;4977625;28;20497;-61
2021/07/15 09:33:48;;;;;;;0.70;0.70;;;22.00;99.90;;;;;;4981400;28;20474;-61
2021/07/15 09:36:19;;;;;;;1.13;0.70;;;22.50;99.90;;;;;;4991294;28;20996;-61
2021/07/15 09:38:47;;;;;;;6.53;1.00;;;23.00;99.90;;;;;;4988248;28;20435;-61
2021/07/15 09:41:19;;;;;;;0.60;0.60;;;23.40;99.90;;;;;;4988168;28;20478;-61
2021/07/15 09:43:47;;;;;;;1.23;0.90;;;24.10;99.90;;;;;;4977765;28;20455;-61
2021/07/15 09:46:19;;;;;;;1.23;0.80;;;24.70;99.90;;;;;;4978304;28;20489;-61
2021/07/15 09:48:48;;;;;;;4.20;1.07;;;24.50;99.90;;;;;;4976520;28;20938;-61
2021/07/15 09:51:19;;;;;;;1.60;0.80;;;24.50;99.90;;;;;;4976817;28;20838;-61
2021/07/15 09:53:47;;;;;;;0.50;0.50;;;24.40;99.90;;;;;;4976612;28;20439;-61
2021/07/15 09:56:16;;;;;;;3.77;0.80;;;24.60;99.90;;;;;;4976888;28;20487;-60
2021/07/15 09:58:45;;;;;;;4.30;0.70;;;25.00;99.90;;;;;;4985648;28;20506;-62
2021/07/15 10:01:13;;;;;;;1.07;0.80;;;25.60;99.90;;;;;;4986893;28;20582;-62
2021/07/15 10:03:41;;;;;;;0.60;0.60;;;26.00;99.90;;;;;;4977232;28;20454;-61
2021/07/15 10:06:10;;;;;;;1.67;0.80;;;26.10;99.90;;;;;;4976317;28;20549;-62
2021/07/15 10:08:39;;;;;;;1.47;0.60;;;25.50;99.90;;;;;;4975749;28;20938;-60
2021/07/15 10:11:20;;;;;;;0.97;0.57;;;24.90;99.90;;;;;;4976843;28;20549;-63
2021/07/15 10:13:48;;;;;;;0.70;0.50;;;24.30;99.90;;;;;;4977274;28;20443;-62
2021/07/15 10:16:16;;;;;;;0.97;0.67;;;24.10;99.90;;;;;;4975852;28;21012;-62
2021/07/15 10:18:45;;;;;;;0.80;0.80;;;23.90;99.90;;;;;;4975790;28;20966;-62
2021/07/15 10:21:14;;;;;;;1.17;0.80;;;23.50;99.90;;;;;;4974983;28;20981;-62
2021/07/15 10:23:44;;;;;;;0.93;0.70;;;22.90;99.90;;;;;;4975882;28;20510;-62
2021/07/15 10:26:13;;;;;;;2.10;1.47;;;23.10;99.90;;;;;;4976185;28;20521;-62
2021/07/15 10:28:44;;;;;;;1.43;0.80;;;23.20;99.90;;;;;;4976200;28;20471;-61
2021/07/15 10:31:11;;;;;;;0.60;0.60;;;23.30;99.90;;;;;;4975604;28;20887;-62
2021/07/15 10:33:38;;;;;;;4.87;0.90;;;23.30;99.90;;;;;;4977027;28;20455;-61
2021/07/15 10:36:06;;;;;;;0.80;0.60;;;23.50;99.90;;;;;;4976372;28;20457;-62
2021/07/15 10:38:37;;;;;;;0.70;0.70;;;23.90;99.90;;;;;;4978792;28;20455;-62
2021/07/15 10:41:06;;;;;;;1.67;0.57;;;24.00;99.90;;;;;;4976790;28;20481;-61
2021/07/15 10:43:35;;;;;;;1.07;0.67;;;23.80;99.90;;;;;;4975679;28;20462;-61
2021/07/15 10:46:04;;;;;;;4.13;0.63;;;23.60;99.90;;;;;;4975681;28;20485;-61
2021/07/15 10:48:31;;;;;;;1.20;1.00;;;23.60;99.90;;;;;;4975503;28;20513;-61
2021/07/15 10:51:00;;;;;;;1.00;0.83;;;23.50;99.90;;;;;;4975599;28;20517;-61
2021/07/15 10:53:28;;;;;;;1.17;0.90;;;23.20;99.90;;;;;;4976148;28;20458;-61
2021/07/15 10:55:55;;;;;;;1.10;1.10;;;23.20;99.90;;;;;;4975956;28;20450;-62
2021/07/15 10:58:46;;;;;;;0.90;0.60;;;23.10;99.90;;;;;;4975304;28;20806;-62
2021/07/15 11:01:29;;;;;;;0.80;0.80;;;23.10;99.90;;;;;;4976307;28;20482;-61
2021/07/15 11:04:06;;;;;;;0.70;0.70;;;23.20;99.90;;;;;;4974960;28;20458;-61
2021/07/15 11:06:37;;;;;;;1.00;1.00;;;23.50;99.90;;;;;;4975412;28;20537;-61
2021/07/15 11:09:04;;;;;;;0.50;0.50;;;23.70;99.90;;;;;;4975443;28;20476;-62
2021/07/15 11:11:39;;;;;;;0.40;0.40;;;23.70;99.90;;;;;;4975180;28;20474;-61
2021/07/15 11:14:08;;;;;;;0.50;0.50;;;23.60;99.90;;;;;;4975837;28;20458;-61
2021/07/15 11:16:47;;;;;;;0.60;0.60;;;23.60;99.90;;;;;;4975457;28;20476;-61
2021/07/15 11:19:47;;;;;;;0.60;0.60;;;23.50;99.90;;;;;;4974989;28;20906;-61
2021/07/15 11:22:43;;;;;;;1.50;0.70;;;23.30;99.90;;;;;;4975207;28;20479;-62
2021/07/15 11:25:12;;;;;;;1.63;0.60;;;23.10;99.90;;;;;;4975321;28;20471;-61
2021/07/15 11:27:44;;;;;;;1.70;0.80;;;22.90;99.90;;;;;;4975063;28;20505;-61
2021/07/15 11:30:16;;;;;;;3.03;0.70;;;22.80;99.90;;;;;;4975175;28;20439;-61
2021/07/15 11:32:43;;;;;;;0.70;0.70;;;22.70;99.90;;;;;;4976792;28;20450;-61
2021/07/15 11:35:27;;;;;;;0.90;0.87;;;22.70;99.90;;;;;;4979145;28;20823;-61
2021/07/15 11:38:06;;;;;;;0.70;0.70;;;22.60;99.90;;;;;;4979178;28;20434;-61
2021/07/15 11:40:44;;;;;;;1.00;0.50;;;22.50;99.90;;;;;;4978929;28;20465;-62
2021/07/15 11:43:31;;;;;;;1.03;0.70;;;22.40;99.90;;;;;;4979077;28;20462;-62
2021/07/15 11:46:16;;;;;;;0.60;0.60;;;22.50;99.90;;;;;;4978910;28;20528;-61
2021/07/15 11:48:52;;;;;;;0.50;0.50;;;22.50;99.90;;;;;;4979029;28;20443;-62
2021/07/15 11:51:29;;;;;;;2.10;0.70;;;22.50;99.90;;;;;;4978810;28;20822;-61
2021/07/15 11:54:19;;;;;;;1.13;0.63;;;22.60;99.90;;;;;;4978934;28;20477;-61
2021/07/15 11:56:48;;;;;;;1.93;0.70;;;22.90;99.90;;;;;;4978758;28;20530;-60
2021/07/15 11:59:33;;;;;;;1.40;1.03;;;23.00;99.90;;;;;;4978385;28;20957;-60
2021/07/15 12:02:06;;;;;;;1.13;0.83;;;23.10;99.90;;;;;;4978463;28;20482;-60
2021/07/15 12:05:13;;;;;;;1.00;0.90;;;23.40;99.90;;;;;;4978841;28;20458;-61
2021/07/15 12:07:42;;;;;;;0.67;0.60;;;23.60;99.90;;;;;;4978596;28;20433;-62
2021/07/15 12:10:10;;;;;;;0.77;0.50;;;23.90;99.90;;;;;;4978525;28;20462;-62
2021/07/15 12:12:42;;;;;;;0.63;0.63;;;24.10;99.90;;;;;;4979356;28;20509;-62
2021/07/15 12:15:17;;;;;;;0.80;0.80;;;24.20;99.90;;;;;;4978853;28;20462;-61
2021/07/15 12:17:46;;;;;;;0.60;0.60;;;24.30;99.90;;;;;;4979210;28;20973;-60
2021/07/15 12:20:13;;;;;;;0.80;0.80;;;24.50;99.90;;;;;;4978329;28;20454;-61
2021/07/15 12:22:48;;;;;;;0.53;0.53;;;24.70;99.90;;;;;;4978286;28;20799;-60
2021/07/15 12:25:19;;;;;;;0.73;0.73;;;24.80;99.90;;;;;;4978208;28;20462;-61
2021/07/15 12:27:47;;;;;;;0.70;0.70;;;25.10;99.90;;;;;;4978151;28;20443;-61
2021/07/15 12:30:15;;;;;;;0.87;0.73;;;25.40;99.90;;;;;;4978266;28;20483;-61
2021/07/15 12:32:55;;;;;;;1.03;0.60;;;25.90;99.90;;;;;;4978190;28;20462;-62
2021/07/15 12:35:24;;;;;;;0.63;0.63;;;26.30;99.90;;;;;;4978146;28;20836;-61
2021/07/15 12:37:50;;;;;;;0.80;0.80;;;26.50;99.90;;;;;;4978290;28;20463;-61
2021/07/15 12:40:17;;;;;;;1.47;0.70;;;26.30;99.90;;;;;;4977735;28;20977;-61
2021/07/15 12:42:44;;;;;;;0.90;0.60;;;26.00;99.90;;;;;;4978268;28;20462;-62
2021/07/15 12:45:15;;;;;;;1.53;0.67;;;25.90;99.90;;;;;;4977015;28;20482;-61
2021/07/15 12:47:42;;;;;;;0.73;0.60;;;25.80;99.90;;;;;;4977984;28;20458;-61
2021/07/15 12:50:22;;;;;;;0.60;0.60;;;25.80;99.90;;;;;;4978346;28;20459;-61
2021/07/15 12:52:48;;;;;;;0.70;0.70;;;25.90;99.90;;;;;;4977947;28;20439;-61
2021/07/15 12:55:27;;;;;;;0.60;0.60;;;26.00;99.90;;;;;;4978053;28;20856;-61
2021/07/15 12:57:54;;;;;;;0.70;0.63;;;25.90;99.90;;;;;;4977911;28;20443;-62
2021/07/15 13:00:22;;;;;;;2.07;0.90;;;25.90;99.90;;;;;;4977460;28;20795;-61
2021/07/15 13:02:50;;;;;;;0.97;0.70;;;25.90;99.90;;;;;;4978435;28;20443;-62
2021/07/15 13:05:20;;;;;;;0.57;0.57;;;26.00;99.90;;;;;;4978355;28;20455;-63
2021/07/15 13:07:48;;;;;;;0.60;0.60;;;26.00;99.90;;;;;;4978316;28;20439;-62
2021/07/15 13:10:22;;;;;;;0.60;0.60;;;26.00;99.90;;;;;;4990115;28;20459;-62
2021/07/15 13:15:30;;;;;;;0.60;0.60;;;25.70;99.90;;;;;;4960082;28;20443;-61
2021/07/15 13:17:57;;;;;;;1.70;0.80;;;25.60;99.90;;;;;;4983631;28;20458;-62
2021/07/15 13:20:25;;;;;;;0.80;0.80;;;25.50;99.90;;;;;;4981713;28;20451;-62
2021/07/15 13:22:53;;;;;;;1.10;0.90;;;25.30;99.90;;;;;;4991935;28;20461;-62
2021/07/15 13:25:23;;;;;;;1.07;1.07;;;25.00;99.90;;;;;;4977499;28;20505;-62
2021/07/15 13:27:51;;;;;;;1.00;0.97;;;24.90;99.90;;;;;;4977049;28;20467;-62
2021/07/15 13:30:21;;;;;;;0.80;0.80;;;24.70;99.90;;;;;;4977256;28;20825;-62
2021/07/15 13:32:48;;;;;;;0.90;0.90;;;24.70;99.90;;;;;;4977087;28;20462;-62
2021/07/15 13:35:16;;;;;;;1.10;1.10;;;24.60;99.90;;;;;;4976970;28;20466;-61
2021/07/15 13:37:44;;;;;;;0.97;0.97;;;24.50;99.90;;;;;;4977626;28;20451;-62
2021/07/15 13:40:19;;;;;;;1.10;1.10;;;24.20;99.90;;;;;;4976861;28;20458;-62
2021/07/15 13:42:45;;;;;;;1.10;1.10;;;24.30;99.90;;;;;;4976628;28;20469;-62
2021/07/15 13:45:14;;;;;;;1.10;1.00;;;24.30;99.90;;;;;;4976957;28;20461;-62
2021/07/15 13:47:43;;;;;;;0.93;0.93;;;24.50;99.90;;;;;;4976767;28;20446;-62
2021/07/15 13:50:12;;;;;;;1.13;1.00;;;24.60;99.90;;;;;;4976811;28;20462;-62
2021/07/15 13:52:40;;;;;;;1.20;0.83;;;24.60;99.90;;;;;;4976513;28;20470;-62
2021/07/15 13:55:11;;;;;;;0.90;0.90;;;24.60;99.90;;;;;;4976673;28;20506;-62
2021/07/15 13:57:40;;;;;;;1.17;0.90;;;24.70;99.90;;;;;;4976820;28;20442;-62
2021/07/15 14:00:09;;;;;;;0.83;0.83;;;24.50;99.90;;;;;;4976270;28;20946;-62
2021/07/15 14:02:36;;;;;;;1.00;1.00;;;24.70;99.90;;;;;;4976432;28;20486;-62
2021/07/15 14:05:03;;;;;;;0.93;0.93;;;24.80;99.90;;;;;;4977743;28;20454;-62
2021/07/15 14:07:35;;;;;;;0.83;0.83;;;24.90;99.90;;;;;;4977362;28;20474;-62
2021/07/15 14:10:08;;;;;;;2.10;1.00;;;24.90;99.90;;;;;;4976383;28;20439;-62
2021/07/15 14:12:35;;;;;;;1.07;1.07;;;24.70;99.90;;;;;;4976333;28;20852;-62
2021/07/15 14:15:04;;;;;;;1.00;1.00;;;24.60;99.90;;;;;;4976213;28;20466;-62
2021/07/15 14:17:31;;;;;;;1.10;1.10;;;24.60;99.90;;;;;;4975967;28;20938;-62
2021/07/15 14:19:58;;;;;;;0.90;0.90;;;24.60;99.90;;;;;;4976371;28;20454;-62
2021/07/15 14:22:26;;;;;;;0.97;0.97;;;24.60;99.90;;;;;;4977368;28;20474;-62
2021/07/15 14:24:53;;;;;;;0.90;0.90;;;24.50;99.90;;;;;;4977303;28;20454;-61
2021/07/15 14:27:22;;;;;;;0.90;0.90;;;24.50;99.90;;;;;;4976443;28;20823;-61
2021/07/15 14:29:50;;;;;;;1.00;1.00;;;24.60;99.90;;;;;;4976775;28;20462;-62
2021/07/15 14:32:19;;;;;;;0.90;0.90;;;24.70;99.90;;;;;;4976617;28;20478;-62
2021/07/15 14:34:47;;;;;;;3.00;1.53;;;24.60;99.90;;;;;;4977290;28;20454;-60
2021/07/15 14:37:14;;;;;;;1.20;1.17;;;24.60;99.90;;;;;;4976824;28;20938;-62
2021/07/15 14:39:41;;;;;;;1.43;1.43;;;24.60;99.90;;;;;;4975978;28;20462;-62
2021/07/15 14:42:08;;;;;;;2.27;1.40;;;24.70;99.90;;;;;;4975698;28;20478;-62
2021/07/15 14:44:36;;;;;;;0.97;0.97;;;24.50;99.90;;;;;;4975453;28;20505;-60
2021/07/15 14:47:02;;;;;;;1.33;1.33;;;24.60;99.90;;;;;;4975651;28;20486;-62
2021/07/15 14:49:29;;;;;;;2.00;0.90;;;24.70;99.90;;;;;;4975759;28;20439;-60
2021/07/15 14:51:57;;;;;;;1.30;1.30;;;24.60;99.90;;;;;;4976339;28;20482;-60
2021/07/15 14:54:24;;;;;;;3.10;1.07;;;24.70;99.90;;;;;;4975719;28;20917;-61
2021/07/15 14:56:51;;;;;;;1.07;1.07;;;24.80;99.90;;;;;;4975246;28;20954;-62
2021/07/15 14:59:18;;;;;;;3.23;1.17;;;24.80;99.90;;;;;;4976137;28;20465;-63
2021/07/15 15:01:46;;;;;;;2.00;1.63;;;24.90;99.90;;;;;;4980202;28;20497;-60
2021/07/15 15:04:13;;;;;;;1.13;1.13;;;25.00;99.90;;;;;;4983902;28;20890;-62
2021/07/15 15:06:40;;;;;;;0.90;0.90;;;25.10;99.90;;;;;;4976805;28;20474;-61
2021/07/15 15:09:07;;;;;;;2.30;1.10;;;25.00;99.90;;;;;;4975441;28;20458;-61
2021/07/15 15:11:33;;;;;;;2.00;1.10;;;25.20;99.90;;;;;;4976054;28;20490;-60
2021/07/15 15:14:00;;;;;;;0.73;0.70;;;25.20;99.90;;;;;;4975353;28;20459;-62
2021/07/15 15:16:27;;;;;;;0.80;0.80;;;25.40;99.90;;;;;;4975421;28;20454;-62
2021/07/15 15:18:55;;;;;;;0.90;0.90;;;25.40;99.90;;;;;;4975585;28;20455;-61
2021/07/15 15:21:21;;;;;;;0.80;0.80;;;25.40;99.90;;;;;;4975518;28;20479;-61
2021/07/15 15:23:48;;;;;;;0.93;0.93;;;25.40;99.90;;;;;;4975655;28;20451;-61
2021/07/15 15:26:15;;;;;;;0.70;0.70;;;25.10;99.90;;;;;;4977523;28;20482;-62
2021/07/15 15:28:41;;;;;;;1.43;0.80;;;25.20;99.90;;;;;;4976317;28;20459;-61
2021/07/15 15:31:08;;;;;;;0.70;0.70;;;25.10;99.90;;;;;;4995242;28;20463;-62
2021/07/15 15:33:35;;;;;;;0.87;0.87;;;25.00;99.90;;;;;;4975795;28;20946;-62
2021/07/15 15:36:04;;;;;;;0.90;0.70;;;25.00;99.90;;;;;;4975890;28;20459;-61
2021/07/15 15:38:30;;;;;;;1.33;1.10;;;25.10;99.90;;;;;;4975343;28;20823;-61
2021/07/15 15:40:57;;;;;;;0.90;0.90;;;25.20;99.90;;;;;;4975204;28;20519;-62
2021/07/15 15:43:24;;;;;;;1.43;1.27;;;25.00;99.90;;;;;;4974905;28;20459;-61
2021/07/15 15:45:51;;;;;;;1.70;1.07;;;25.00;99.90;;;;;;4975007;28;20553;-62
2021/07/15 15:48:17;;;;;;;1.60;0.90;;;25.10;99.90;;;;;;4974887;28;20532;-60
2021/07/15 15:50:44;;;;;;;0.90;0.90;;;25.20;99.90;;;;;;4974991;28;20504;-61
2021/07/15 15:53:12;;;;;;;0.97;0.97;;;25.30;99.90;;;;;;4974547;28;20458;-62
2021/07/15 15:55:39;;;;;;;3.80;0.93;;;25.20;99.90;;;;;;4974459;28;20458;-61
2021/07/15 15:58:05;;;;;;;1.30;1.30;;;25.20;99.90;;;;;;4975751;28;20450;-62
2021/07/15 16:00:33;;;;;;;1.23;1.23;;;25.30;99.90;;;;;;4974859;28;20474;-62
2021/07/15 16:02:59;;;;;;;1.00;1.00;;;25.40;99.90;;;;;;4974826;28;20918;-62
2021/07/15 16:05:26;;;;;;;0.90;0.90;;;25.40;99.90;;;;;;4975006;28;20465;-62
2021/07/15 16:07:54;;;;;;;0.83;0.83;;;25.40;99.90;;;;;;4975592;28;20889;-62
2021/07/15 16:10:24;;;;;;;0.80;0.80;;;25.40;99.90;;;;;;4976149;28;20946;-62
2021/07/15 16:12:51;;;;;;;0.80;0.80;;;25.50;99.90;;;;;;4975184;28;20461;-62
2021/07/15 16:15:22;;;;;;;0.90;0.90;;;25.40;99.90;;;;;;4974964;28;20454;-61
2021/07/15 16:17:50;;;;;;;0.80;0.70;;;25.20;99.90;;;;;;4978026;28;20435;-63
2021/07/15 16:20:19;;;;;;;0.80;0.80;;;25.10;99.90;;;;;;4985161;28;20478;-62
2021/07/15 16:22:47;;;;;;;1.00;1.00;;;24.90;99.90;;;;;;4981235;28;20458;-62
2021/07/15 16:25:16;;;;;;;1.33;1.13;;;24.80;99.90;;;;;;4980031;28;20521;-62
2021/07/15 16:27:45;;;;;;;1.30;1.30;;;24.70;99.90;;;;;;4979346;28;20478;-62
2021/07/15 16:30:14;;;;;;;1.53;1.53;;;24.60;99.90;;;;;;4978577;28;20458;-62
2021/07/15 16:32:41;;;;;;;1.13;1.13;;;24.50;99.90;;;;;;4978299;28;20454;-62
2021/07/15 16:35:10;;;;;;;1.93;1.27;;;24.30;99.90;;;;;;4978773;28;20459;-62
2021/07/15 16:37:37;;;;;;;1.70;1.70;;;24.10;99.90;;;;;;4991181;28;20479;-62
2021/07/15 16:40:06;;;;;;;2.00;1.90;;;23.90;99.90;;;;;;4980284;28;20461;-62
2021/07/15 16:42:32;;;;;;;1.43;1.43;;;23.60;99.90;;;;;;4977780;28;20474;-60
2021/07/15 16:45:00;;;;;;;1.90;1.90;;;23.50;99.90;;;;;;4978658;28;20454;-62
2021/07/15 16:47:27;;;;;;;1.40;1.40;;;23.40;99.90;;;;;;4978370;28;20989;-62
2021/07/15 16:49:54;;;;;;;1.60;1.60;;;23.30;99.90;;;;;;4987717;28;20455;-62
2021/07/15 16:52:20;;;;;;;1.83;1.60;;;23.20;99.90;;;;;;4984457;28;20982;-61
2021/07/15 16:54:47;;;;;;;2.10;2.00;;;23.10;99.90;;;;;;4986999;28;20485;-62
2021/07/15 16:57:14;;;;;;;2.30;1.77;;;23.10;99.90;;;;;;4994018;28;20446;-62
2021/07/15 16:59:41;;;;;;;1.80;1.70;;;23.00;99.90;;;;;;4994287;28;20473;-62
2021/07/15 17:02:09;;;;;;;1.73;1.63;;;23.00;99.90;;;;;;4980042;28;20886;-62